Terminal Aerodrome Forecast
Issued by NWS

Home | Current Version | Previous Version | Graphics & Text | Print | Product List | Glossary On
Versions: 1 2 3 4 5 6 7 8 9 10 11 12 13 14 15 16 17 18 19 20 21 22
000
FTUS43 KOAX 262300 RRA
TAFCDR
TAF
KCDR 262353Z 2700/2724 14013G25KT P6SM BKN040
      TEMPO 2700/2703 VRB20G35KT 4SM TSRA BKN025CB
     FM270300 17007KT P6SM VCSH BKN060
     FM271000 18005KT 3SM BR OVC025
     FM271600 11005KT 5SM -RA BR OVC020=

USA.gov is the U.S. government's official web portal to all federal, state and local government web resources and services.